Time;durP1;ratioP1;P1;durP2;ratioP2;P2;SDS_P1;SDS_P2;PMS_P1;PMS_P2;Temp;Humidity;BMP_temperature;BMP_pressure;BME280_temperature;BME280_humidity;BME280_pressure;Samples;Min_cycle;Max_cycle;Signal;HPM_P1;HPM_P2
2023/08/08 00:01:21;;;;;;;8.25;2.25;;;;;;;;;;4996064;28;20033;-94
2023/08/08 00:03:47;;;;;;;11.00;2.90;;;;;;;;;;5000063;28;20385;-96
2023/08/08 00:06:13;;;;;;;5.85;2.20;;;;;;;;;;4996164;28;20030;-94
2023/08/08 00:08:39;;;;;;;14.63;2.90;;;;;;;;;;4992133;28;20037;-94
2023/08/08 00:11:09;;;;;;;8.60;2.67;;;;;;;;;;4990734;28;20040;-94
2023/08/08 00:13:35;;;;;;;6.90;2.10;;;;;;;;;;4993237;28;20027;-93
2023/08/08 00:16:02;;;;;;;10.57;2.13;;;;;;;;;;5000607;28;20076;-91
2023/08/08 00:18:28;;;;;;;10.50;2.38;;;;;;;;;;4991190;28;20121;-91
2023/08/08 00:20:57;;;;;;;5.82;2.65;;;;;;;;;;4994959;28;20439;-93
2023/08/08 00:23:24;;;;;;;9.27;2.40;;;;;;;;;;5013746;28;20093;-91
2023/08/08 00:25:51;;;;;;;8.05;2.40;;;;;;;;;;4988090;28;20505;-91
2023/08/08 00:28:17;;;;;;;9.18;2.33;;;;;;;;;;4992832;28;20033;-92
2023/08/08 00:30:46;;;;;;;6.30;2.60;;;;;;;;;;5012630;28;20025;-91
2023/08/08 00:33:12;;;;;;;7.00;2.75;;;;;;;;;;5007276;28;20049;-92
2023/08/08 00:35:38;;;;;;;8.15;2.10;;;;;;;;;;4994473;28;20072;-91
2023/08/08 00:38:04;;;;;;;6.32;2.20;;;;;;;;;;4991380;28;20057;-92
2023/08/08 00:40:30;;;;;;;5.10;2.53;;;;;;;;;;5005956;28;20625;-92
2023/08/08 00:42:57;;;;;;;5.18;2.35;;;;;;;;;;4977845;28;20116;-91
2023/08/08 00:45:23;;;;;;;6.97;2.60;;;;;;;;;;4996246;28;20025;-93
2023/08/08 00:47:52;;;;;;;4.95;2.53;;;;;;;;;;4989446;28;20080;-94
2023/08/08 00:50:24;;;;;;;3.85;2.25;;;;;;;;;;4998016;28;20030;-91
2023/08/08 00:52:54;;;;;;;6.50;2.80;;;;;;;;;;4980485;28;20486;-93
2023/08/08 00:55:20;;;;;;;4.05;2.47;;;;;;;;;;4980636;28;20037;-91
2023/08/08 00:57:46;;;;;;;7.72;2.65;;;;;;;;;;4980148;28;20156;-91
2023/08/08 01:00:12;;;;;;;8.98;2.75;;;;;;;;;;4988170;28;20798;-92
2023/08/08 01:02:39;;;;;;;5.85;2.55;;;;;;;;;;4990851;28;20681;-91
2023/08/08 01:05:08;;;;;;;9.73;2.67;;;;;;;;;;4972592;28;20036;-91
2023/08/08 01:07:57;;;;;;;9.40;2.72;;;;;;;;;;4992081;28;20030;-92
2023/08/08 01:10:29;;;;;;;11.80;3.22;;;;;;;;;;5006493;28;20501;-92
2023/08/08 01:12:59;;;;;;;9.88;3.00;;;;;;;;;;5001101;28;20033;-94
2023/08/08 01:15:25;;;;;;;10.55;3.28;;;;;;;;;;5007032;28;20176;-91
2023/08/08 01:17:55;;;;;;;7.25;2.80;;;;;;;;;;4981080;28;20494;-92
2023/08/08 01:20:23;;;;;;;4.70;2.53;;;;;;;;;;5013996;28;20034;-93
2023/08/08 01:22:59;;;;;;;11.10;2.85;;;;;;;;;;4980971;28;20030;-92
2023/08/08 01:25:25;;;;;;;6.65;3.03;;;;;;;;;;4988744;28;20470;-94
2023/08/08 01:27:51;;;;;;;7.47;2.85;;;;;;;;;;4980670;28;20478;-94
2023/08/08 01:30:17;;;;;;;8.43;2.72;;;;;;;;;;4989621;28;20502;-95
2023/08/08 01:32:46;;;;;;;8.45;2.63;;;;;;;;;;4999728;28;20053;-95
2023/08/08 01:35:13;;;;;;;12.55;2.55;;;;;;;;;;4998539;28;20038;-95
2023/08/08 01:37:42;;;;;;;10.55;2.95;;;;;;;;;;5024453;28;20053;-95
2023/08/08 01:40:11;;;;;;;8.73;2.90;;;;;;;;;;5016250;28;20109;-94
2023/08/08 01:42:38;;;;;;;9.00;2.88;;;;;;;;;;4999200;28;20030;-92
2023/08/08 01:45:04;;;;;;;9.68;2.40;;;;;;;;;;5018399;28;20057;-94
2023/08/08 01:47:34;;;;;;;6.95;2.47;;;;;;;;;;5017500;28;20022;-95
2023/08/08 01:50:00;;;;;;;9.27;2.22;;;;;;;;;;5018839;28;20058;-94
2023/08/08 01:52:26;;;;;;;7.88;2.47;;;;;;;;;;5006159;28;20034;-94
2023/08/08 01:54:56;;;;;;;8.75;2.70;;;;;;;;;;5021233;28;20026;-94
2023/08/08 01:57:22;;;;;;;8.60;2.40;;;;;;;;;;4998142;28;20126;-93
2023/08/08 01:59:50;;;;;;;7.57;2.45;;;;;;;;;;4994921;28;20390;-96
2023/08/08 02:02:17;;;;;;;4.82;2.47;;;;;;;;;;4989244;28;20045;-94
2023/08/08 02:04:44;;;;;;;6.03;2.63;;;;;;;;;;5010268;28;20057;-92
2023/08/08 02:07:14;;;;;;;7.55;2.40;;;;;;;;;;5013675;28;20374;-94
2023/08/08 02:10:03;;;;;;;6.60;2.80;;;;;;;;;;4995180;28;20030;-96
2023/08/08 02:12:30;;;;;;;5.03;2.42;;;;;;;;;;5003686;28;20069;-95
2023/08/08 02:14:56;;;;;;;5.95;2.30;;;;;;;;;;4992432;28;20438;-96
2023/08/08 02:17:22;;;;;;;6.75;2.50;;;;;;;;;;4993727;28;20050;-95
2023/08/08 02:19:51;;;;;;;6.30;2.58;;;;;;;;;;5010137;28;20164;-93
2023/08/08 02:22:17;;;;;;;9.18;2.88;;;;;;;;;;4995235;28;20719;-94
2023/08/08 02:24:44;;;;;;;11.77;2.90;;;;;;;;;;5014036;28;20429;-94
2023/08/08 02:27:14;;;;;;;3.83;2.40;;;;;;;;;;5006311;28;20562;-95
2023/08/08 02:29:46;;;;;;;9.65;2.90;;;;;;;;;;5014584;28;20569;-94
2023/08/08 02:32:26;;;;;;;6.85;2.70;;;;;;;;;;5006475;28;20036;-94
2023/08/08 02:34:52;;;;;;;9.02;3.00;;;;;;;;;;4988748;28;20045;-93
2023/08/08 02:37:19;;;;;;;5.18;2.35;;;;;;;;;;5006909;28;20053;-94
2023/08/08 02:39:45;;;;;;;14.98;3.63;;;;;;;;;;4999350;28;20042;-92
2023/08/08 02:42:11;;;;;;;5.75;2.83;;;;;;;;;;4995966;28;20037;-94
2023/08/08 02:44:37;;;;;;;8.07;2.85;;;;;;;;;;5029607;28;20032;-95
2023/08/08 02:47:06;;;;;;;9.68;2.95;;;;;;;;;;5017514;28;20114;-93
2023/08/08 02:49:33;;;;;;;6.45;2.58;;;;;;;;;;5003447;28;20030;-94
2023/08/08 02:51:59;;;;;;;11.35;3.40;;;;;;;;;;5019226;28;20037;-93
2023/08/08 02:54:26;;;;;;;9.77;2.88;;;;;;;;;;5016266;28;20106;-94
2023/08/08 02:56:52;;;;;;;8.45;2.95;;;;;;;;;;5007148;28;20101;-93
2023/08/08 02:59:22;;;;;;;9.57;2.95;;;;;;;;;;4998446;28;20564;-94
2023/08/08 03:01:49;;;;;;;9.05;2.45;;;;;;;;;;5013827;28;20045;-95
2023/08/08 03:04:15;;;;;;;10.77;2.97;;;;;;;;;;5003845;28;20060;-94
2023/08/08 03:06:41;;;;;;;10.82;3.33;;;;;;;;;;4993198;28;20033;-93
2023/08/08 03:09:07;;;;;;;6.80;2.50;;;;;;;;;;5008712;28;20037;-93
2023/08/08 03:11:37;;;;;;;7.47;2.60;;;;;;;;;;5009697;28;20116;-92
2023/08/08 03:14:03;;;;;;;8.15;2.17;;;;;;;;;;5019743;28;20083;-92
2023/08/08 03:16:29;;;;;;;8.80;2.35;;;;;;;;;;5014025;28;20465;-93
2023/08/08 03:18:59;;;;;;;5.65;1.60;;;;;;;;;;5007808;28;20524;-93
2023/08/08 03:21:28;;;;;;;8.23;2.28;;;;;;;;;;5020500;28;20097;-93
2023/08/08 03:23:54;;;;;;;10.35;2.10;;;;;;;;;;5029782;28;20030;-94
2023/08/08 03:26:21;;;;;;;7.20;2.20;;;;;;;;;;5015122;28;20042;-94
2023/08/08 03:28:50;;;;;;;9.93;2.10;;;;;;;;;;5012265;28;20033;-93
2023/08/08 03:31:17;;;;;;;4.47;1.90;;;;;;;;;;5000015;28;20203;-93
2023/08/08 03:33:43;;;;;;;8.25;2.20;;;;;;;;;;5002450;28;20167;-94
2023/08/08 03:36:10;;;;;;;8.73;2.03;;;;;;;;;;5022457;28;20037;-94
2023/08/08 03:38:37;;;;;;;8.20;2.10;;;;;;;;;;5019029;28;20045;-94
2023/08/08 03:41:11;;;;;;;5.53;1.73;;;;;;;;;;4996689;28;20093;-92
2023/08/08 03:43:37;;;;;;;3.10;1.50;;;;;;;;;;4999506;28;20128;-95
2023/08/08 03:46:03;;;;;;;5.95;1.80;;;;;;;;;;4998175;28;20038;-93
2023/08/08 03:48:29;;;;;;;8.35;2.30;;;;;;;;;;4996925;28;20124;-95
2023/08/08 03:50:55;;;;;;;9.10;2.38;;;;;;;;;;4997428;28;20708;-94
2023/08/08 03:53:21;;;;;;;6.63;1.65;;;;;;;;;;4999848;28;20034;-95
2023/08/08 03:55:47;;;;;;;3.75;1.63;;;;;;;;;;5013355;28;20030;-95
2023/08/08 03:58:14;;;;;;;2.60;1.45;;;;;;;;;;4994958;28;20080;-94
2023/08/08 04:00:45;;;;;;;2.97;1.50;;;;;;;;;;4996975;28;20072;-94
2023/08/08 04:03:14;;;;;;;5.68;1.85;;;;;;;;;;5013090;28;20100;-94
2023/08/08 04:05:40;;;;;;;2.47;1.70;;;;;;;;;;5007876;28;20050;-92
2023/08/08 04:08:06;;;;;;;6.07;1.80;;;;;;;;;;5017173;28;20034;-94
2023/08/08 04:10:32;;;;;;;4.13;1.77;;;;;;;;;;4991629;28;20663;-93
2023/08/08 04:13:00;;;;;;;4.30;1.40;;;;;;;;;;5008206;28;20041;-94
2023/08/08 04:15:26;;;;;;;7.18;1.70;;;;;;;;;;4992864;28;20049;-94
2023/08/08 04:17:54;;;;;;;4.93;1.60;;;;;;;;;;4997628;28;20297;-95
2023/08/08 04:20:21;;;;;;;11.02;1.95;;;;;;;;;;4993708;28;20038;-95
2023/08/08 04:22:48;;;;;;;6.35;1.90;;;;;;;;;;4997794;28;20112;-94
2023/08/08 04:25:15;;;;;;;6.47;1.73;;;;;;;;;;4992494;28;20086;-94
2023/08/08 04:27:42;;;;;;;8.32;2.03;;;;;;;;;;5012655;28;20121;-94
2023/08/08 04:30:09;;;;;;;5.30;1.60;;;;;;;;;;4986841;28;20038;-93
2023/08/08 04:32:35;;;;;;;4.65;1.65;;;;;;;;;;4997212;28;20417;-94
2023/08/08 04:35:01;;;;;;;4.00;1.58;;;;;;;;;;4996276;28;20120;-93
2023/08/08 04:37:28;;;;;;;3.83;1.83;;;;;;;;;;5009726;28;20058;-96
2023/08/08 04:39:55;;;;;;;4.35;1.40;;;;;;;;;;4977459;28;20045;-95
2023/08/08 04:42:21;;;;;;;4.57;1.58;;;;;;;;;;4980439;28;20034;-94
2023/08/08 04:44:50;;;;;;;7.00;1.83;;;;;;;;;;4982632;28;20033;-93
2023/08/08 04:47:19;;;;;;;7.30;1.88;;;;;;;;;;4988445;28;20046;-93
2023/08/08 04:49:45;;;;;;;4.97;2.10;;;;;;;;;;4989890;28;20473;-93
2023/08/08 04:52:14;;;;;;;3.47;1.40;;;;;;;;;;4998430;28;20038;-96
2023/08/08 04:54:44;;;;;;;4.35;1.30;;;;;;;;;;4999193;28;20034;-94
2023/08/08 04:57:10;;;;;;;3.53;1.95;;;;;;;;;;4982151;28;20476;-94
2023/08/08 04:59:36;;;;;;;2.75;1.50;;;;;;;;;;4999344;28;20040;-94
2023/08/08 05:02:03;;;;;;;9.15;1.67;;;;;;;;;;4980273;28;20033;-92
2023/08/08 05:04:30;;;;;;;1.30;0.93;;;;;;;;;;4982704;28;20093;-92
2023/08/08 05:06:57;;;;;;;9.20;1.75;;;;;;;;;;4974283;28;20032;-91
2023/08/08 05:09:26;;;;;;;5.85;2.53;;;;;;;;;;4991927;28;20057;-92
2023/08/08 05:12:02;;;;;;;3.67;1.30;;;;;;;;;;4995076;28;20033;-94
2023/08/08 05:14:35;;;;;;;12.63;2.00;;;;;;;;;;4994915;28;20022;-92
2023/08/08 05:17:03;;;;;;;6.05;1.75;;;;;;;;;;4983042;28;20040;-92
2023/08/08 05:19:29;;;;;;;5.75;1.77;;;;;;;;;;4995411;28;20064;-92
2023/08/08 05:21:55;;;;;;;2.67;1.40;;;;;;;;;;4994148;28;20688;-91
2023/08/08 05:24:22;;;;;;;4.90;1.67;;;;;;;;;;4970332;28;20034;-93
2023/08/08 05:26:48;;;;;;;7.95;1.58;;;;;;;;;;4977630;28;20033;-93
2023/08/08 05:29:14;;;;;;;4.63;1.63;;;;;;;;;;4980613;28;20037;-92
2023/08/08 05:31:40;;;;;;;4.18;1.63;;;;;;;;;;4976895;28;20034;-92
2023/08/08 05:34:06;;;;;;;6.63;1.67;;;;;;;;;;4977391;28;20104;-92
2023/08/08 05:36:32;;;;;;;9.13;1.70;;;;;;;;;;4976250;28;20037;-90
2023/08/08 05:39:06;;;;;;;8.70;1.60;;;;;;;;;;4998463;28;20505;-90
2023/08/08 05:41:33;;;;;;;2.25;1.35;;;;;;;;;;5009551;28;20048;-90
2023/08/08 05:43:59;;;;;;;6.55;1.50;;;;;;;;;;4995643;28;20064;-92
2023/08/08 05:46:25;;;;;;;4.53;1.40;;;;;;;;;;5014866;28;20056;-92
2023/08/08 05:48:51;;;;;;;3.83;1.58;;;;;;;;;;5030769;28;20450;-92
2023/08/08 05:51:20;;;;;;;8.20;1.48;;;;;;;;;;5020640;28;20388;-92
2023/08/08 05:53:47;;;;;;;8.70;1.65;;;;;;;;;;5000021;28;20212;-91
2023/08/08 05:56:14;;;;;;;5.60;1.38;;;;;;;;;;4998649;28;20098;-92
2023/08/08 05:58:40;;;;;;;4.90;1.50;;;;;;;;;;5018986;28;20043;-92
2023/08/08 06:01:11;;;;;;;5.82;2.55;;;;;;;;;;5038195;28;20508;-91
2023/08/08 06:03:47;;;;;;;6.85;1.48;;;;;;;;;;5018501;28;20029;-92
2023/08/08 06:06:13;;;;;;;8.68;1.55;;;;;;;;;;5017727;28;20554;-91
2023/08/08 06:08:39;;;;;;;5.70;1.20;;;;;;;;;;4996279;28;20405;-90
2023/08/08 06:11:05;;;;;;;8.27;1.67;;;;;;;;;;5026923;28;20033;-92
2023/08/08 06:13:32;;;;;;;6.85;2.30;;;;;;;;;;4996331;28;20419;-92
2023/08/08 06:16:01;;;;;;;5.50;1.48;;;;;;;;;;5000162;28;20079;-91
2023/08/08 06:18:27;;;;;;;4.72;1.65;;;;;;;;;;5025386;28;20026;-90
2023/08/08 06:21:02;;;;;;;5.38;1.30;;;;;;;;;;4988238;28;20060;-92
2023/08/08 06:23:29;;;;;;;6.00;1.30;;;;;;;;;;5002399;28;20055;-92
2023/08/08 06:25:55;;;;;;;7.50;1.73;;;;;;;;;;4984834;28;20072;-92
2023/08/08 06:28:22;;;;;;;3.55;1.45;;;;;;;;;;4984769;28;20354;-91
2023/08/08 06:30:48;;;;;;;5.50;1.05;;;;;;;;;;4997722;28;20093;-90
2023/08/08 06:33:15;;;;;;;5.70;1.50;;;;;;;;;;4987452;28;20152;-90
2023/08/08 06:35:42;;;;;;;3.42;1.08;;;;;;;;;;4997656;28;20129;-90
2023/08/08 06:38:15;;;;;;;9.30;1.88;;;;;;;;;;4995449;28;20045;-90
2023/08/08 06:40:45;;;;;;;4.68;1.33;;;;;;;;;;5016911;28;20034;-91
2023/08/08 06:43:11;;;;;;;6.45;1.42;;;;;;;;;;5002892;28;20536;-90
2023/08/08 06:45:40;;;;;;;4.20;1.20;;;;;;;;;;5003441;28;20033;-90
2023/08/08 06:48:06;;;;;;;5.78;1.30;;;;;;;;;;5004170;28;20091;-91
2023/08/08 06:50:32;;;;;;;9.13;1.95;;;;;;;;;;4990398;28;20046;-90
2023/08/08 06:52:59;;;;;;;8.60;2.22;;;;;;;;;;5001512;28;20030;-91
2023/08/08 06:55:27;;;;;;;8.93;2.50;;;;;;;;;;5017241;28;20042;-90
2023/08/08 06:57:53;;;;;;;3.17;1.33;;;;;;;;;;5000751;28;20727;-90
2023/08/08 07:00:22;;;;;;;7.80;1.75;;;;;;;;;;5000019;28;20105;-91
2023/08/08 07:02:48;;;;;;;9.45;1.48;;;;;;;;;;5013038;28;20079;-91
2023/08/08 07:05:18;;;;;;;5.05;1.25;;;;;;;;;;5001406;28;20093;-92
2023/08/08 07:07:44;;;;;;;3.17;1.40;;;;;;;;;;4982552;28;20448;-90
2023/08/08 07:10:12;;;;;;;7.75;1.35;;;;;;;;;;5016427;28;20036;-90
2023/08/08 07:12:38;;;;;;;3.15;1.27;;;;;;;;;;5020264;28;20458;-90
2023/08/08 07:15:07;;;;;;;3.50;1.05;;;;;;;;;;4985059;28;20037;-93
2023/08/08 07:17:36;;;;;;;3.53;1.35;;;;;;;;;;5003583;28;20418;-93
2023/08/08 07:20:05;;;;;;;4.18;1.55;;;;;;;;;;5005500;28;20034;-93
2023/08/08 07:22:32;;;;;;;3.35;1.00;;;;;;;;;;5021340;28;20048;-93
2023/08/08 07:25:08;;;;;;;8.27;1.58;;;;;;;;;;5017618;28;20041;-94
2023/08/08 07:27:34;;;;;;;;;;;;;;;;;;5004858;28;20444;-94
2023/08/08 07:30:01;;;;;;;1.90;1.13;;;;;;;;;;5004155;28;20544;-93
2023/08/08 07:32:28;;;;;;;6.60;1.30;;;;;;;;;;4997230;28;20212;-93
2023/08/08 07:34:54;;;;;;;2.80;1.23;;;;;;;;;;5017631;28;20045;-92
2023/08/08 07:37:27;;;;;;;7.95;1.50;;;;;;;;;;5003750;28;20041;-93
2023/08/08 07:39:54;;;;;;;3.53;0.90;;;;;;;;;;4963113;28;20045;-92
2023/08/08 07:42:21;;;;;;;5.25;1.25;;;;;;;;;;4965888;28;20045;-93
2023/08/08 07:44:47;;;;;;;4.38;1.13;;;;;;;;;;4966330;28;20066;-93
2023/08/08 07:47:16;;;;;;;3.33;1.33;;;;;;;;;;4984847;28;20084;-94
2023/08/08 07:49:43;;;;;;;5.43;1.30;;;;;;;;;;4971009;28;20041;-93
2023/08/08 07:52:12;;;;;;;3.00;1.35;;;;;;;;;;4969879;28;20038;-92
2023/08/08 07:54:41;;;;;;;1.77;0.45;;;;;;;;;;4967341;28;20037;-93
2023/08/08 07:57:13;;;;;;;7.82;1.20;;;;;;;;;;4983818;28;20034;-92
2023/08/08 07:59:39;;;;;;;2.08;1.02;;;;;;;;;;4970575;28;20529;-93
2023/08/08 08:02:06;;;;;;;5.75;1.20;;;;;;;;;;4966914;28;20077;-93
2023/08/08 08:04:38;;;;;;;2.53;1.10;;;;;;;;;;4961333;28;20038;-93
2023/08/08 08:07:04;;;;;;;5.30;1.70;;;;;;;;;;4986280;28;20038;-92
2023/08/08 08:09:30;;;;;;;6.50;1.40;;;;;;;;;;4971424;28;20160;-93
2023/08/08 08:11:56;;;;;;;3.28;0.73;;;;;;;;;;4971905;28;20224;-92
2023/08/08 08:14:24;;;;;;;5.18;0.98;;;;;;;;;;4969260;28;20046;-93
2023/08/08 08:16:51;;;;;;;2.65;1.17;;;;;;;;;;4985701;28;20038;-93
2023/08/08 08:19:17;;;;;;;3.65;0.85;;;;;;;;;;5001033;28;20096;-93
2023/08/08 08:21:43;;;;;;;5.07;1.00;;;;;;;;;;4983664;28;20037;-93
2023/08/08 08:24:10;;;;;;;4.07;1.10;;;;;;;;;;4982499;28;20379;-91
2023/08/08 08:26:36;;;;;;;5.15;1.17;;;;;;;;;;4984734;28;20097;-90
2023/08/08 08:29:03;;;;;;;5.55;1.05;;;;;;;;;;4970621;28;20034;-90
2023/08/08 08:31:29;;;;;;;5.95;1.17;;;;;;;;;;4969677;28;20046;-91
2023/08/08 08:33:55;;;;;;;7.15;1.23;;;;;;;;;;4968850;28;20121;-90
2023/08/08 08:36:21;;;;;;;7.50;0.88;;;;;;;;;;4981390;28;20041;-91
2023/08/08 08:38:48;;;;;;;5.35;1.23;;;;;;;;;;5011326;28;20049;-91
2023/08/08 08:41:16;;;;;;;7.63;1.65;;;;;;;;;;5001393;28;20021;-92
2023/08/08 08:43:42;;;;;;;8.15;1.50;;;;;;;;;;5014658;28;20389;-91
2023/08/08 08:46:09;;;;;;;6.82;1.38;;;;;;;;;;4984458;28;20451;-91
2023/08/08 08:48:35;;;;;;;5.88;1.15;;;;;;;;;;5003543;28;20025;-90
2023/08/08 08:51:02;;;;;;;10.90;1.70;;;;;;;;;;4985585;28;20037;-91
2023/08/08 08:53:29;;;;;;;3.03;1.13;;;;;;;;;;4987445;28;20037;-90
2023/08/08 08:55:56;;;;;;;4.25;1.25;;;;;;;;;;4987666;28;20123;-93
2023/08/08 08:58:29;;;;;;;8.05;1.42;;;;;;;;;;5015355;28;20053;-91
2023/08/08 09:00:56;;;;;;;3.15;1.05;;;;;;;;;;5003857;28;20037;-91
2023/08/08 09:03:22;;;;;;;6.35;1.27;;;;;;;;;;5000038;28;20501;-90
2023/08/08 09:05:49;;;;;;;3.78;1.23;;;;;;;;;;4991280;28;20029;-90
2023/08/08 09:08:15;;;;;;;3.67;0.88;;;;;;;;;;5003736;28;20025;-92
2023/08/08 09:10:47;;;;;;;6.95;1.67;;;;;;;;;;5007924;28;20425;-91
2023/08/08 09:13:17;;;;;;;5.43;1.20;;;;;;;;;;4991897;28;20049;-91
2023/08/08 09:15:47;;;;;;;8.18;1.35;;;;;;;;;;4986451;28;20041;-90
2023/08/08 09:18:14;;;;;;;6.30;1.20;;;;;;;;;;4996565;28;20551;-91
2023/08/08 09:21:06;;;;;;;6.00;1.40;;;;;;;;;;5005685;28;20252;-90
2023/08/08 09:23:32;;;;;;;6.93;1.60;;;;;;;;;;4978100;28;20551;-90
2023/08/08 09:25:58;;;;;;;4.35;1.25;;;;;;;;;;5002849;28;20053;-90
2023/08/08 09:28:25;;;;;;;3.83;0.93;;;;;;;;;;5005333;28;20037;-91
2023/08/08 09:30:53;;;;;;;3.95;1.20;;;;;;;;;;4986601;28;20053;-91
2023/08/08 09:33:20;;;;;;;3.42;1.45;;;;;;;;;;5004976;28;20412;-91
2023/08/08 09:35:49;;;;;;;1.00;0.63;;;;;;;;;;5003732;28;20037;-93
2023/08/08 09:38:15;;;;;;;7.30;1.63;;;;;;;;;;4985702;28;20306;-90
2023/08/08 09:43:27;;;;;;;;;;;;;;;;;;5003629;28;20177;-92
2023/08/08 09:45:56;;;;;;;4.15;1.25;;;;;;;;;;5000268;28;20369;-91
2023/08/08 09:48:23;;;;;;;2.33;1.35;;;;;;;;;;4982649;28;20030;-92
2023/08/08 09:50:49;;;;;;;3.85;1.30;;;;;;;;;;4985392;28;20038;-92
2023/08/08 09:53:16;;;;;;;3.13;1.08;;;;;;;;;;4997196;28;20056;-91
2023/08/08 09:55:46;;;;;;;4.00;1.80;;;;;;;;;;4984945;28;20030;-91
2023/08/08 09:58:13;;;;;;;1.98;0.95;;;;;;;;;;5000665;28;20058;-91
2023/08/08 10:00:43;;;;;;;1.48;0.80;;;;;;;;;;4995861;28;20065;-92
2023/08/08 10:03:09;;;;;;;2.10;0.70;;;;;;;;;;4999011;28;20817;-91
2023/08/08 10:05:37;;;;;;;3.78;1.02;;;;;;;;;;4966656;28;20168;-90
2023/08/08 10:08:03;;;;;;;1.98;1.00;;;;;;;;;;4983684;28;20265;-89
2023/08/08 10:10:29;;;;;;;2.40;0.63;;;;;;;;;;4961791;28;20038;-91
2023/08/08 10:12:56;;;;;;;2.50;0.90;;;;;;;;;;4993435;28;20033;-88
2023/08/08 10:15:32;;;;;;;5.00;1.00;;;;;;;;;;4979517;28;20037;-90
2023/08/08 10:17:58;;;;;;;3.65;0.82;;;;;;;;;;5015852;28;20061;-90
2023/08/08 10:20:25;;;;;;;2.08;0.82;;;;;;;;;;4982742;28;20033;-90
2023/08/08 10:23:02;;;;;;;0.93;0.50;;;;;;;;;;5000627;28;20025;-91
2023/08/08 10:25:29;;;;;;;6.13;1.52;;;;;;;;;;5001147;28;20033;-91
2023/08/08 10:28:04;;;;;;;6.78;1.20;;;;;;;;;;4985570;28;20470;-90
2023/08/08 10:30:34;;;;;;;5.30;1.10;;;;;;;;;;4991371;28;20042;-90
2023/08/08 10:33:04;;;;;;;7.20;1.25;;;;;;;;;;4997367;28;20034;-92
2023/08/08 10:35:48;;;;;;;4.65;1.50;;;;;;;;;;4998421;28;20030;-91
2023/08/08 10:38:15;;;;;;;1.45;1.15;;;;;;;;;;5004156;28;20045;-90
2023/08/08 10:41:00;;;;;;;5.88;1.33;;;;;;;;;;4987509;28;20068;-92
2023/08/08 10:43:32;;;;;;;3.42;1.30;;;;;;;;;;5011094;28;20577;-92
2023/08/08 10:46:02;;;;;;;3.08;0.95;;;;;;;;;;4983829;28;20048;-93
2023/08/08 10:48:28;;;;;;;3.63;1.52;;;;;;;;;;4984856;28;20029;-94
2023/08/08 10:51:11;;;;;;;7.45;1.38;;;;;;;;;;5005366;28;20042;-93
2023/08/08 10:53:38;;;;;;;4.72;1.50;;;;;;;;;;5002860;28;20045;-93
2023/08/08 10:56:09;;;;;;;3.80;1.67;;;;;;;;;;5019438;28;20038;-93
2023/08/08 10:58:36;;;;;;;2.35;1.63;;;;;;;;;;5000360;28;24588;-93
2023/08/08 11:01:10;;;;;;;2.28;1.48;;;;;;;;;;5002723;28;20038;-92
2023/08/08 11:03:42;;;;;;;2.83;1.30;;;;;;;;;;5019117;28;20440;-93
2023/08/08 11:06:08;;;;;;;2.33;1.20;;;;;;;;;;5018621;28;20061;-94
2023/08/08 11:08:36;;;;;;;7.05;1.58;;;;;;;;;;5001606;28;20033;-93
2023/08/08 11:11:03;;;;;;;5.53;1.60;;;;;;;;;;4985846;28;20402;-94
2023/08/08 11:13:29;;;;;;;3.08;1.55;;;;;;;;;;4983682;28;20042;-94
2023/08/08 11:16:03;;;;;;;4.05;1.40;;;;;;;;;;4989098;28;20508;-93
2023/08/08 11:18:30;;;;;;;5.82;1.48;;;;;;;;;;4998898;28;20033;-94
2023/08/08 11:20:58;;;;;;;4.22;1.70;;;;;;;;;;5000944;28;20056;-94
2023/08/08 11:23:24;;;;;;;4.97;1.13;;;;;;;;;;4990090;28;20041;-92
2023/08/08 11:25:51;;;;;;;1.88;0.77;;;;;;;;;;5003336;28;20832;-93
2023/08/08 11:28:17;;;;;;;4.80;1.20;;;;;;;;;;4995644;28;20067;-94
2023/08/08 11:30:45;;;;;;;4.43;1.20;;;;;;;;;;4995158;28;20048;-93
2023/08/08 11:33:21;;;;;;;3.53;1.58;;;;;;;;;;5003628;28;20123;-93
2023/08/08 11:35:53;;;;;;;6.68;1.40;;;;;;;;;;5013661;28;20091;-94
2023/08/08 11:38:20;;;;;;;3.15;1.50;;;;;;;;;;4992551;28;20049;-93
2023/08/08 11:41:01;;;;;;;1.80;1.13;;;;;;;;;;4998334;28;20038;-93
2023/08/08 11:43:28;;;;;;;9.18;1.45;;;;;;;;;;5009490;28;20060;-93
2023/08/08 11:45:56;;;;;;;3.22;1.48;;;;;;;;;;5007404;28;20080;-93
2023/08/08 11:48:22;;;;;;;6.72;1.25;;;;;;;;;;4989836;28;20362;-93
2023/08/08 11:50:57;;;;;;;3.47;1.17;;;;;;;;;;4989077;28;20041;-94
2023/08/08 11:53:42;;;;;;;2.33;0.98;;;;;;;;;;4992871;28;20101;-93
2023/08/08 11:56:08;;;;;;;2.55;1.13;;;;;;;;;;5003211;28;20069;-93
2023/08/08 11:58:36;;;;;;;4.72;1.40;;;;;;;;;;4988160;28;20098;-93
2023/08/08 12:01:02;;;;;;;3.45;1.05;;;;;;;;;;5004092;28;20397;-93
2023/08/08 12:03:28;;;;;;;10.07;1.60;;;;;;;;;;4990910;28;20087;-92
2023/08/08 12:05:57;;;;;;;8.65;1.83;;;;;;;;;;4983979;28;20040;-94
2023/08/08 12:08:26;;;;;;;6.07;1.13;;;;;;;;;;4995878;28;20033;-92
2023/08/08 12:10:56;;;;;;;3.78;1.25;;;;;;;;;;4989435;28;20038;-92
2023/08/08 12:13:26;;;;;;;5.32;1.27;;;;;;;;;;4986629;28;20033;-93
2023/08/08 12:16:13;;;;;;;4.20;1.27;;;;;;;;;;4987792;28;20418;-92
2023/08/08 12:18:40;;;;;;;2.15;0.80;;;;;;;;;;5004654;28;20060;-93
2023/08/08 12:21:07;;;;;;;3.72;1.02;;;;;;;;;;4991295;28;20099;-93
2023/08/08 12:23:33;;;;;;;7.47;1.20;;;;;;;;;;4989975;28;20535;-92
2023/08/08 12:26:09;;;;;;;8.80;1.48;;;;;;;;;;4989564;28;20030;-93
2023/08/08 12:28:35;;;;;;;2.42;1.05;;;;;;;;;;5005005;28;20026;-92
2023/08/08 12:31:02;;;;;;;8.55;1.23;;;;;;;;;;4988430;28;20877;-93
2023/08/08 12:33:28;;;;;;;3.75;1.02;;;;;;;;;;4990039;28;20539;-92
2023/08/08 12:35:54;;;;;;;4.53;1.20;;;;;;;;;;5004589;28;20034;-93
2023/08/08 12:38:21;;;;;;;8.75;1.13;;;;;;;;;;4988011;28;20114;-92
2023/08/08 12:40:53;;;;;;;4.05;0.93;;;;;;;;;;4986545;28;20080;-93
2023/08/08 12:43:20;;;;;;;5.63;1.48;;;;;;;;;;5003222;28;20068;-91
2023/08/08 12:45:47;;;;;;;3.00;1.00;;;;;;;;;;5002519;28;20143;-93
2023/08/08 12:48:20;;;;;;;5.22;1.00;;;;;;;;;;5002129;28;20040;-93
2023/08/08 12:50:46;;;;;;;8.05;1.58;;;;;;;;;;5005312;28;20029;-93
2023/08/08 12:53:12;;;;;;;3.65;1.33;;;;;;;;;;4989005;28;20053;-93
2023/08/08 12:55:39;;;;;;;5.03;1.58;;;;;;;;;;5002948;28;20056;-93
2023/08/08 12:58:08;;;;;;;4.00;1.40;;;;;;;;;;5017760;28;20112;-92
2023/08/08 13:00:35;;;;;;;5.15;1.52;;;;;;;;;;4999945;28;20429;-93
2023/08/08 13:03:02;;;;;;;3.63;1.15;;;;;;;;;;5004137;28;20572;-93
2023/08/08 13:05:30;;;;;;;2.97;1.13;;;;;;;;;;5005171;28;20076;-94
2023/08/08 13:07:56;;;;;;;1.58;1.00;;;;;;;;;;4990439;28;20041;-93
2023/08/08 13:10:23;;;;;;;4.68;1.02;;;;;;;;;;5001697;28;20053;-93
2023/08/08 13:12:49;;;;;;;4.95;1.48;;;;;;;;;;4988662;28;20501;-93
2023/08/08 13:15:15;;;;;;;1.08;0.75;;;;;;;;;;5001166;28;20097;-93
2023/08/08 13:17:41;;;;;;;8.30;1.67;;;;;;;;;;5004801;28;20029;-93
2023/08/08 13:20:10;;;;;;;2.25;0.93;;;;;;;;;;5000648;28;20470;-93
2023/08/08 13:22:38;;;;;;;7.45;1.02;;;;;;;;;;5006483;28;20409;-94
2023/08/08 13:25:14;;;;;;;2.70;0.85;;;;;;;;;;4990541;28;20030;-93
2023/08/08 13:27:42;;;;;;;2.55;1.15;;;;;;;;;;4990292;28;20038;-93
2023/08/08 13:30:18;;;;;;;2.55;1.00;;;;;;;;;;5004133;28;20033;-93
2023/08/08 13:32:46;;;;;;;7.80;1.20;;;;;;;;;;5002115;28;20498;-92
2023/08/08 13:35:13;;;;;;;3.22;1.20;;;;;;;;;;4997987;28;20462;-93
2023/08/08 13:37:39;;;;;;;2.90;1.10;;;;;;;;;;4988742;28;20091;-93
2023/08/08 13:40:06;;;;;;;3.92;1.00;;;;;;;;;;5001320;28;20041;-92
2023/08/08 13:42:32;;;;;;;4.13;1.52;;;;;;;;;;5001996;28;20036;-93
2023/08/08 13:44:59;;;;;;;4.25;1.10;;;;;;;;;;4980767;28;20030;-93
2023/08/08 13:47:25;;;;;;;6.70;1.40;;;;;;;;;;4992695;28;20129;-93
2023/08/08 13:49:53;;;;;;;3.58;1.02;;;;;;;;;;5008887;28;20034;-93
2023/08/08 13:52:25;;;;;;;1.98;0.93;;;;;;;;;;4982087;28;20045;-93
2023/08/08 13:54:55;;;;;;;3.42;1.60;;;;;;;;;;4994988;28;20486;-93
2023/08/08 13:57:21;;;;;;;2.80;1.13;;;;;;;;;;4999434;28;20161;-94
2023/08/08 13:59:49;;;;;;;3.13;1.35;;;;;;;;;;4984134;28;20073;-93
2023/08/08 14:02:17;;;;;;;5.97;1.27;;;;;;;;;;4993321;28;20029;-92
2023/08/08 14:04:47;;;;;;;4.53;1.17;;;;;;;;;;4999161;28;20029;-93
2023/08/08 14:07:13;;;;;;;3.63;0.82;;;;;;;;;;4999410;28;20509;-93
2023/08/08 14:09:39;;;;;;;7.20;1.17;;;;;;;;;;4982294;28;20168;-93
2023/08/08 14:12:05;;;;;;;5.70;1.15;;;;;;;;;;4980964;28;20453;-93
2023/08/08 14:14:32;;;;;;;2.90;0.90;;;;;;;;;;4983081;28;20034;-93
2023/08/08 14:16:58;;;;;;;3.50;1.42;;;;;;;;;;4983048;28;20045;-93
2023/08/08 14:19:24;;;;;;;4.85;1.52;;;;;;;;;;5014735;28;20044;-92
2023/08/08 14:22:13;;;;;;;4.38;0.88;;;;;;;;;;4999524;28;20038;-93
2023/08/08 14:24:38;;;;;;;4.28;1.20;;;;;;;;;;5002892;28;20038;-92
2023/08/08 14:27:04;;;;;;;4.72;0.88;;;;;;;;;;5009899;28;20065;-93
2023/08/08 14:29:30;;;;;;;5.45;1.35;;;;;;;;;;5004028;28;20034;-92
2023/08/08 14:31:56;;;;;;;1.60;1.02;;;;;;;;;;4987978;28;20038;-93
2023/08/08 14:34:33;;;;;;;3.63;1.10;;;;;;;;;;4987314;28;20091;-93
2023/08/08 14:37:02;;;;;;;11.00;1.33;;;;;;;;;;5001622;28;20493;-92
2023/08/08 14:39:33;;;;;;;10.18;1.48;;;;;;;;;;4986537;28;20073;-92
2023/08/08 14:41:59;;;;;;;6.00;1.15;;;;;;;;;;5007638;28;20093;-93
2023/08/08 14:44:26;;;;;;;5.63;1.05;;;;;;;;;;4993293;28;20077;-93
2023/08/08 14:46:53;;;;;;;4.10;1.00;;;;;;;;;;5006838;28;20022;-92
2023/08/08 14:49:28;;;;;;;4.82;1.08;;;;;;;;;;5011525;28;20064;-93
2023/08/08 14:51:55;;;;;;;4.85;1.27;;;;;;;;;;5009551;28;20029;-93